createdAt,value
2019-05-15T00:01:54.478Z,61.20
2019-05-15T00:04:21.057Z,61.10
2019-05-15T00:06:48.627Z,60.90
2019-05-15T00:09:15.621Z,59.30
2019-05-15T00:11:42.331Z,59.70
2019-05-15T00:14:09.201Z,61.00
2019-05-15T00:16:38.418Z,61.40
2019-05-15T00:19:04.262Z,61.00
2019-05-15T00:21:31.066Z,61.60
2019-05-15T00:23:58.651Z,61.50
2019-05-15T00:26:25.908Z,59.40
2019-05-15T00:28:52.654Z,60.00
2019-05-15T00:31:19.533Z,61.60
2019-05-15T00:33:48.173Z,60.80
2019-05-15T00:36:14.450Z,59.10
2019-05-15T00:38:41.132Z,59.20
2019-05-15T00:41:09.395Z,59.30
2019-05-15T00:43:38.491Z,58.30
2019-05-15T00:46:05.404Z,58.10
2019-05-15T00:48:32.203Z,58.60
2019-05-15T00:50:59.050Z,58.00
2019-05-15T00:53:28.100Z,59.80
2019-05-15T00:55:54.286Z,59.90
2019-05-15T00:58:21.159Z,59.60
2019-05-15T01:00:48.661Z,59.30
2019-05-15T01:03:18.051Z,59.20
2019-05-15T01:05:44.141Z,59.10
2019-05-15T01:08:11.126Z,59.00
2019-05-15T01:10:38.721Z,59.70
2019-05-15T01:13:07.757Z,58.80
2019-05-15T01:15:33.908Z,59.30
2019-05-15T01:18:00.553Z,59.10
2019-05-15T01:20:28.582Z,58.60
2019-05-15T01:22:55.614Z,58.40
2019-05-15T01:25:22.579Z,58.80
2019-05-15T01:27:49.775Z,58.00
2019-05-15T01:30:17.973Z,58.30
2019-05-15T01:32:45.163Z,58.70
2019-05-15T01:35:11.765Z,59.20
2019-05-15T01:40:11.583Z,58.30
2019-05-15T01:42:38.807Z,58.30
2019-05-15T01:45:08.372Z,57.80
2019-05-15T01:47:34.979Z,57.70
2019-05-15T01:50:02.115Z,58.90
2019-05-15T01:52:28.771Z,58.20
2019-05-15T01:54:58.102Z,59.10
2019-05-15T01:57:23.943Z,58.80
2019-05-15T01:59:57.023Z,58.90
2019-05-15T02:02:19.085Z,58.30
2019-05-15T02:04:48.431Z,57.20
2019-05-15T02:07:14.136Z,58.60
2019-05-15T02:09:40.789Z,57.90
2019-05-15T02:12:09.557Z,57.60
2019-05-15T02:14:39.023Z,59.10
2019-05-15T02:17:08.504Z,58.70
2019-05-15T02:19:39.009Z,60.00
2019-05-15T02:22:03.488Z,58.50
2019-05-15T02:24:30.366Z,58.40
2019-05-15T02:26:58.812Z,58.40
2019-05-15T02:29:28.981Z,58.30
2019-05-15T02:31:58.838Z,57.80
2019-05-15T02:34:23.941Z,58.00
2019-05-15T02:36:51.072Z,58.60
2019-05-15T02:39:19.204Z,58.50
2019-05-15T02:41:49.098Z,58.10
2019-05-15T02:44:19.940Z,58.40
2019-05-15T02:46:49.714Z,57.50
2019-05-15T02:49:15.003Z,59.30
2019-05-15T02:51:41.855Z,58.50
2019-05-15T02:54:10.193Z,58.10
2019-05-15T02:56:39.279Z,58.60
2019-05-15T02:59:09.009Z,58.60
2019-05-15T03:01:33.975Z,58.80
2019-05-15T03:04:00.954Z,59.00
2019-05-15T03:06:29.807Z,59.10
2019-05-15T03:08:59.584Z,57.90
2019-05-15T03:11:24.783Z,57.50
2019-05-15T03:13:51.406Z,57.40
2019-05-15T03:16:19.401Z,57.70
2019-05-15T03:18:46.350Z,57.70
2019-05-15T03:21:13.385Z,58.00
2019-05-15T03:23:40.611Z,58.60
2019-05-15T03:26:08.818Z,57.90
2019-05-15T03:28:38.803Z,57.80
2019-05-15T03:31:30.446Z,58.10
2019-05-15T03:33:36.211Z,57.90
2019-05-15T03:36:03.332Z,58.20
2019-05-15T03:38:30.211Z,58.30
2019-05-15T03:40:59.536Z,58.40
2019-05-15T03:43:25.334Z,58.00
2019-05-15T03:45:52.127Z,58.50
2019-05-15T03:48:19.640Z,57.90
2019-05-15T03:50:48.900Z,57.60
2019-05-15T03:53:15.242Z,58.20
2019-05-15T03:55:41.893Z,58.20
2019-05-15T03:58:09.865Z,57.80
2019-05-15T04:00:39.518Z,58.90
2019-05-15T04:03:05.166Z,57.90
2019-05-15T04:05:32.074Z,57.90
2019-05-15T04:08:00.143Z,58.10
2019-05-15T04:10:28.815Z,58.70
2019-05-15T04:12:56.128Z,57.80
2019-05-15T04:15:22.912Z,57.90
2019-05-15T04:17:49.733Z,58.20
2019-05-15T04:20:19.850Z,57.90
2019-05-15T04:22:44.752Z,58.10
2019-05-15T04:25:11.601Z,58.10
2019-05-15T04:27:39.106Z,58.80
2019-05-15T04:30:06.113Z,58.40
2019-05-15T04:32:32.708Z,58.70
2019-05-15T04:34:59.640Z,58.40
2019-05-15T04:37:29.644Z,58.50
2019-05-15T04:39:54.558Z,58.20
2019-05-15T04:42:21.449Z,58.50
2019-05-15T04:44:49.458Z,58.70
2019-05-15T04:47:19.213Z,59.20
2019-05-15T04:49:44.780Z,58.50
2019-05-15T04:52:11.518Z,59.10
2019-05-15T04:54:40.251Z,59.10
2019-05-15T04:57:09.285Z,59.10
2019-05-15T04:59:38.716Z,59.20
2019-05-15T05:02:17.025Z,58.70
2019-05-15T05:04:33.325Z,59.10
2019-05-15T05:06:59.945Z,59.80
2019-05-15T05:09:28.863Z,59.70
2019-05-15T05:11:55.243Z,59.20
2019-05-15T05:14:21.837Z,59.70
2019-05-15T05:16:49.038Z,59.40
2019-05-15T05:19:15.824Z,60.50
2019-05-15T05:21:42.450Z,59.10
2019-05-15T05:24:09.063Z,59.20
2019-05-15T05:26:38.058Z,59.50
2019-05-15T05:29:03.984Z,59.30
2019-05-15T05:31:30.733Z,58.80
2019-05-15T05:33:57.792Z,59.00
2019-05-15T05:36:24.426Z,59.30
2019-05-15T05:38:51.310Z,60.50
2019-05-15T05:41:18.948Z,59.50
2019-05-15T05:43:45.672Z,59.80
2019-05-15T05:46:12.243Z,60.80
2019-05-15T05:48:39.204Z,60.00
2019-05-15T05:51:05.834Z,60.00
2019-05-15T05:53:32.428Z,59.70
2019-05-15T05:55:59.528Z,60.00
2019-05-15T05:58:26.131Z,59.70
2019-05-15T06:00:52.725Z,61.00
2019-05-15T06:03:20.028Z,58.60
2019-05-15T06:05:49.137Z,58.60
2019-05-15T06:08:15.044Z,60.00
2019-05-15T06:10:41.618Z,59.00
2019-05-15T06:13:08.825Z,59.90
2019-05-15T06:15:37.846Z,60.70
2019-05-15T06:18:04.105Z,59.70
2019-05-15T06:20:30.912Z,59.10
2019-05-15T06:22:58.286Z,59.60
2019-05-15T06:25:24.914Z,59.60
2019-05-15T06:27:51.508Z,59.80
2019-05-15T06:30:21.885Z,60.50
2019-05-15T06:33:01.947Z,59.80
2019-05-15T06:35:15.166Z,59.70
2019-05-15T06:37:42.051Z,60.40
2019-05-15T06:40:09.015Z,60.60
2019-05-15T06:42:35.811Z,59.70
2019-05-15T06:45:02.668Z,59.20
2019-05-15T06:47:29.434Z,60.40
2019-05-15T06:49:58.001Z,60.10
2019-05-15T06:52:24.626Z,59.40
2019-05-15T06:54:52.249Z,60.00
2019-05-15T06:57:18.982Z,59.60
2019-05-15T06:59:45.843Z,59.40
2019-05-15T07:02:13.149Z,60.60
2019-05-15T07:04:39.814Z,59.50
2019-05-15T07:07:10.948Z,60.60
2019-05-15T07:09:37.872Z,61.30
2019-05-15T07:12:04.265Z,61.00
2019-05-15T07:14:33.813Z,59.80
2019-05-15T07:17:03.040Z,59.10
2019-05-15T07:19:29.775Z,59.60
2019-05-15T07:21:59.684Z,60.10
2019-05-15T07:24:28.772Z,59.80
2019-05-15T07:26:54.813Z,62.20
2019-05-15T07:29:21.490Z,64.00
2019-05-15T07:31:48.766Z,62.60
2019-05-15T07:34:23.308Z,60.50
2019-05-15T07:36:53.602Z,62.40
2019-05-15T07:39:21.767Z,59.70
2019-05-15T07:41:48.508Z,59.70
2019-05-15T07:44:15.406Z,58.40
2019-05-15T07:46:42.288Z,60.00
2019-05-15T07:49:09.274Z,60.90
2019-05-15T07:51:38.015Z,59.60
2019-05-15T07:54:04.641Z,59.20
2019-05-15T07:56:31.551Z,59.40
2019-05-15T07:58:58.725Z,58.30
2019-05-15T08:01:25.812Z,59.20
2019-05-15T08:04:09.280Z,58.90
2019-05-15T08:06:24.113Z,60.10
2019-05-15T08:08:49.256Z,59.10
2019-05-15T08:11:20.645Z,58.90
2019-05-15T08:13:44.225Z,59.80
2019-05-15T08:16:11.460Z,58.90
2019-05-15T08:18:39.434Z,59.40
2019-05-15T08:21:08.792Z,59.10
2019-05-15T08:23:35.025Z,60.00
2019-05-15T08:26:02.203Z,58.30
2019-05-15T08:28:29.060Z,58.90
2019-05-15T08:30:58.106Z,59.20
2019-05-15T08:33:24.063Z,58.30
2019-05-15T08:35:51.839Z,57.10
2019-05-15T08:38:19.094Z,58.50
2019-05-15T08:40:45.793Z,58.30
2019-05-15T08:43:12.415Z,58.60
2019-05-15T08:45:42.338Z,57.50
2019-05-15T08:48:09.447Z,59.10
2019-05-15T08:50:38.891Z,58.30
2019-05-15T08:53:04.769Z,57.70
2019-05-15T08:55:31.507Z,58.90
2019-05-15T08:58:06.631Z,57.80
2019-05-15T09:00:29.447Z,58.40
2019-05-15T09:02:58.131Z,59.20
2019-05-15T09:05:23.951Z,58.00
2019-05-15T09:07:50.686Z,56.90
2019-05-15T09:10:18.448Z,58.20
2019-05-15T09:12:45.485Z,59.40
2019-05-15T09:17:48.797Z,58.00
2019-05-15T09:20:15.622Z,58.80
2019-05-15T09:22:42.242Z,56.80
2019-05-15T09:25:09.143Z,57.70
2019-05-15T09:27:38.102Z,57.60
2019-05-15T09:30:20.000Z,57.60
2019-05-15T09:32:48.477Z,57.80
2019-05-15T09:35:15.056Z,58.60
2019-05-15T09:37:41.961Z,57.20
2019-05-15T09:40:09.360Z,58.00
2019-05-15T09:42:38.737Z,55.90
2019-05-15T09:45:05.226Z,57.30
2019-05-15T09:47:32.765Z,57.30
2019-05-15T09:49:59.464Z,58.00
2019-05-15T09:52:26.079Z,58.60
2019-05-15T09:54:53.237Z,57.70
2019-05-15T09:57:19.929Z,57.50
2019-05-15T09:59:48.799Z,57.90
2019-05-15T10:02:15.135Z,57.70
2019-05-15T10:04:43.262Z,55.40
2019-05-15T10:07:10.107Z,55.50
2019-05-15T10:09:41.765Z,57.10
2019-05-15T10:12:09.249Z,57.50
2019-05-15T10:14:38.615Z,58.10
2019-05-15T10:22:10.110Z,55.70
2019-05-15T10:24:36.957Z,58.00
2019-05-15T10:27:03.806Z,57.50
2019-05-15T10:29:31.539Z,58.40
2019-05-15T10:31:58.366Z,57.70
2019-05-15T10:34:25.975Z,57.00
2019-05-15T10:36:52.860Z,57.50
2019-05-15T10:39:19.739Z,56.20
2019-05-15T10:41:48.226Z,56.40
2019-05-15T10:44:17.986Z,56.40
2019-05-15T10:46:43.770Z,57.30
2019-05-15T10:49:12.007Z,57.40
2019-05-15T10:51:39.741Z,57.20
2019-05-15T10:54:08.595Z,56.70
2019-05-15T10:56:34.958Z,57.80
2019-05-15T10:59:02.183Z,58.60
2019-05-15T11:01:29.299Z,58.00
2019-05-15T11:03:58.667Z,56.60
2019-05-15T11:06:24.662Z,57.50
2019-05-15T11:08:51.700Z,57.10
2019-05-15T11:11:18.771Z,57.00
2019-05-15T11:13:45.704Z,57.30
2019-05-15T11:16:13.603Z,57.40
2019-05-15T11:18:40.403Z,57.20
2019-05-15T11:21:08.252Z,58.30
2019-05-15T11:23:35.015Z,57.60
2019-05-15T11:26:01.672Z,57.50
2019-05-15T11:28:31.959Z,57.60
2019-05-15T11:30:59.459Z,57.20
2019-05-15T11:33:25.461Z,58.50
2019-05-15T11:36:00.901Z,57.00
2019-05-15T11:38:20.724Z,58.90
2019-05-15T11:40:47.404Z,57.10
2019-05-15T11:43:14.075Z,58.70
2019-05-15T11:45:40.949Z,58.60
2019-05-15T11:48:09.001Z,58.40
2019-05-15T11:50:35.936Z,57.60
2019-05-15T11:53:02.877Z,58.30
2019-05-15T11:55:29.489Z,58.30
2019-05-15T11:57:59.248Z,57.30
2019-05-15T12:00:27.210Z,57.90
2019-05-15T12:02:53.671Z,58.30
2019-05-15T12:05:20.549Z,58.40
2019-05-15T12:07:47.893Z,57.80
2019-05-15T12:10:14.988Z,59.10
2019-05-15T12:12:42.426Z,60.00
2019-05-15T12:15:09.090Z,59.60
2019-05-15T12:17:35.908Z,61.20
2019-05-15T12:20:06.215Z,60.00
2019-05-15T12:22:32.573Z,59.60
2019-05-15T12:25:00.429Z,59.80
2019-05-15T12:27:28.408Z,60.10
2019-05-15T12:29:55.351Z,59.40
2019-05-15T12:32:30.062Z,59.70
2019-05-15T12:34:52.326Z,61.50
2019-05-15T12:37:19.863Z,59.90
2019-05-15T12:39:49.155Z,60.10
2019-05-15T13:00:15.345Z,61.10
2019-05-15T13:02:39.934Z,60.20
2019-05-15T13:05:09.787Z,61.50
2019-05-15T13:07:58.046Z,62.00
2019-05-15T13:10:28.786Z,63.80
2019-05-15T13:13:04.958Z,62.60
2019-05-15T13:15:28.186Z,64.10
2019-05-15T13:18:03.549Z,64.30
2019-05-15T13:20:35.095Z,61.90
2019-05-15T13:23:04.362Z,64.30
2019-05-15T13:25:32.982Z,65.40
2019-05-15T13:28:08.769Z,62.70
2019-05-15T13:30:41.270Z,63.10
2019-05-15T13:33:05.930Z,61.80
2019-05-15T13:35:37.913Z,62.00
2019-05-15T13:38:14.156Z,62.10
2019-05-15T13:40:42.721Z,64.00
2019-05-15T13:43:14.260Z,63.40
2019-05-15T13:48:34.768Z,65.50
2019-05-15T13:51:06.210Z,67.40
2019-05-15T13:53:30.491Z,67.50
2019-05-15T13:56:02.235Z,66.20
2019-05-15T13:58:38.743Z,67.40
2019-05-15T14:01:01.629Z,68.10
2019-05-15T14:03:38.874Z,69.50
2019-05-15T14:06:09.443Z,70.00
2019-05-15T14:08:44.091Z,68.60
2019-05-15T14:13:43.596Z,68.60
2019-05-15T14:16:19.253Z,70.50
2019-05-15T14:18:48.001Z,69.60
2019-05-15T14:21:20.380Z,70.60
2019-05-15T14:23:57.729Z,71.70
2019-05-15T14:26:25.512Z,70.40
2019-05-15T14:28:54.187Z,69.60
2019-05-15T14:31:22.719Z,69.50
2019-05-15T14:34:58.360Z,69.10
2019-05-15T14:53:12.203Z,70.60
2019-05-15T14:55:43.903Z,70.20
2019-05-15T14:58:08.279Z,68.40
2019-05-15T15:00:35.285Z,67.10
2019-05-15T15:03:02.064Z,67.90
2019-05-15T15:05:28.836Z,69.20
2019-05-15T15:07:58.357Z,67.70
2019-05-15T15:10:24.168Z,68.40
2019-05-15T15:12:51.065Z,70.10
2019-05-15T15:15:18.080Z,71.20
2019-05-15T15:17:45.017Z,69.30
2019-05-15T15:20:11.604Z,70.20
2019-05-15T15:22:39.459Z,68.80
2019-05-15T15:25:09.939Z,66.60
2019-05-15T15:27:38.679Z,69.60
2019-05-15T15:30:05.379Z,69.20
2019-05-15T15:32:32.044Z,67.70
2019-05-15T15:34:58.854Z,68.80
2019-05-15T15:37:25.506Z,67.50
2019-05-15T15:42:28.494Z,70.80
2019-05-15T15:44:54.894Z,70.10
2019-05-15T15:47:21.478Z,70.40
2019-05-15T15:52:23.089Z,71.50
2019-05-15T15:54:50.954Z,71.70
2019-05-15T15:57:19.209Z,71.20
2019-05-15T15:59:49.087Z,71.80
2019-05-15T16:02:16.049Z,67.70
2019-05-15T16:04:42.862Z,68.80
2019-05-15T16:09:44.079Z,73.60
2019-05-15T16:12:11.134Z,70.60
2019-05-15T16:14:38.131Z,65.60
2019-05-15T16:17:08.583Z,69.00
2019-05-15T16:19:38.333Z,69.20
2019-05-15T16:22:04.589Z,72.90
2019-05-15T16:27:05.747Z,73.60
2019-05-15T16:29:32.482Z,71.20
2019-05-15T16:31:59.093Z,71.10
2019-05-15T16:34:28.551Z,70.50
2019-05-15T16:36:55.426Z,70.90
2019-05-15T16:39:22.009Z,70.30
2019-05-15T16:41:51.190Z,71.90
2019-05-15T16:44:17.952Z,68.90
2019-05-15T16:46:47.983Z,70.10
2019-05-15T16:49:18.716Z,70.80
2019-05-15T16:51:49.002Z,70.30
2019-05-15T16:54:14.837Z,71.80
2019-05-15T16:56:43.295Z,72.10
2019-05-15T16:59:09.904Z,71.00
2019-05-15T17:01:39.177Z,72.80
2019-05-15T17:04:08.603Z,73.60
2019-05-15T17:06:35.477Z,73.50
2019-05-15T17:09:02.098Z,71.10
2019-05-15T17:11:32.395Z,70.70
2019-05-15T17:13:59.422Z,72.50
2019-05-15T17:16:26.326Z,68.80
2019-05-15T17:18:58.143Z,74.00
2019-05-15T17:21:28.269Z,73.80
2019-05-15T17:23:54.238Z,74.40
2019-05-15T17:26:22.381Z,74.00
2019-05-15T17:28:49.227Z,73.60
2019-05-15T17:31:17.965Z,72.70
2019-05-15T17:33:48.949Z,74.80
2019-05-15T17:36:18.457Z,80.90
2019-05-15T17:38:44.444Z,85.60
2019-05-15T17:41:13.316Z,87.40
2019-05-15T17:43:39.904Z,90.20
2019-05-15T17:46:08.703Z,90.60
2019-05-15T17:48:38.811Z,91.10
2019-05-15T17:51:05.620Z,91.40
2019-05-15T17:53:34.113Z,91.60
2019-05-15T17:56:02.389Z,92.30
2019-05-15T17:58:29.023Z,92.90
2019-05-15T18:00:55.932Z,93.30
2019-05-15T18:03:28.753Z,93.70
2019-05-15T18:05:55.881Z,94.20
2019-05-15T18:08:22.474Z,94.40
2019-05-15T18:10:51.191Z,94.80
2019-05-15T18:13:17.780Z,94.90
2019-05-15T18:15:45.381Z,94.80
2019-05-15T18:28:31.421Z,94.80
2019-05-15T18:30:58.817Z,95.20
2019-05-15T18:33:27.860Z,96.10
2019-05-15T18:35:57.934Z,97.40
2019-05-15T18:38:23.980Z,94.10
2019-05-15T18:40:50.817Z,98.10
2019-05-15T18:45:51.493Z,92.00
2019-05-15T18:51:21.238Z,91.20
2019-05-15T18:53:33.467Z,90.90
2019-05-15T18:56:00.250Z,89.40
2019-05-15T18:58:26.827Z,89.70
2019-05-15T19:00:58.786Z,90.10
2019-05-15T19:03:27.764Z,89.30
2019-05-15T19:05:53.917Z,87.80
2019-05-15T19:08:22.173Z,87.80
2019-05-15T19:10:48.764Z,87.60
2019-05-15T19:13:15.537Z,87.20
2019-05-15T19:15:48.360Z,88.40
2019-05-15T19:18:15.180Z,88.80
2019-05-15T19:20:41.865Z,89.70
2019-05-15T19:28:18.743Z,91.10
2019-05-15T19:30:44.888Z,91.80
2019-05-15T19:33:11.476Z,91.90
2019-05-15T19:35:40.838Z,92.60
2019-05-15T19:38:07.611Z,94.90
2019-05-15T19:40:34.204Z,96.20
2019-05-15T19:43:04.029Z,96.10
2019-05-15T19:45:30.741Z,98.30
2019-05-15T19:47:58.698Z,99.30
2019-05-15T19:50:29.346Z,98.30
2019-05-15T19:52:56.200Z,99.60
2019-05-15T19:55:25.231Z,99.40
2019-05-15T19:57:55.136Z,98.40
2019-05-15T20:00:21.718Z,97.70
2019-05-15T20:02:48.648Z,98.20
2019-05-15T20:05:18.952Z,97.70
2019-05-15T20:07:47.869Z,98.70
2019-05-15T20:10:14.537Z,98.80
2019-05-15T20:12:45.078Z,99.90
2019-05-15T20:15:11.754Z,99.90
2019-05-15T20:17:38.740Z,98.80
2019-05-15T20:20:08.682Z,99.00
2019-05-15T20:22:37.536Z,98.90
2019-05-15T20:25:04.286Z,99.30
2019-05-15T20:27:32.964Z,98.70
2019-05-15T20:29:59.809Z,98.40
2019-05-15T20:32:27.855Z,97.60
2019-05-15T20:40:01.623Z,98.00
2019-05-15T20:42:28.388Z,97.60
2019-05-15T20:44:55.084Z,97.80
2019-05-15T20:47:28.005Z,97.20
2019-05-15T20:49:54.319Z,96.60
2019-05-15T20:52:21.845Z,95.50
2019-05-15T20:54:49.993Z,95.20
2019-05-15T20:57:16.853Z,95.70
2019-05-15T20:59:43.442Z,94.90
2019-05-15T21:02:12.070Z,94.80
2019-05-15T21:04:38.668Z,94.70
2019-05-15T21:07:05.529Z,95.90
2019-05-15T21:09:34.645Z,94.20
2019-05-15T21:12:01.227Z,94.20
2019-05-15T21:14:28.111Z,94.40
2019-05-15T21:16:58.856Z,94.70
2019-05-15T21:19:25.102Z,94.10
2019-05-15T21:21:52.010Z,94.00
2019-05-15T21:24:21.452Z,93.30
2019-05-15T21:26:48.844Z,93.70
2019-05-15T21:29:15.605Z,94.20
2019-05-15T21:31:49.034Z,95.90
2019-05-15T21:34:15.419Z,95.00
2019-05-15T21:36:42.079Z,94.70
2019-05-15T21:39:10.145Z,95.20
2019-05-15T21:41:38.705Z,95.40
2019-05-15T21:44:05.505Z,94.60
2019-05-15T21:46:34.269Z,94.00
2019-05-15T21:49:00.953Z,93.70
2019-05-15T21:51:28.110Z,94.50
2019-05-15T21:54:01.275Z,94.60
2019-05-15T21:56:27.975Z,94.00
2019-05-15T21:58:54.622Z,94.50
2019-05-15T22:01:28.689Z,94.40
2019-05-15T22:03:55.457Z,94.80
2019-05-15T22:06:22.161Z,94.00
2019-05-15T22:08:52.464Z,94.30
2019-05-15T22:11:21.926Z,93.40
2019-05-15T22:13:49.153Z,92.40
2019-05-15T22:16:18.410Z,91.50
2019-05-15T22:18:45.150Z,92.10
2019-05-15T22:21:12.145Z,92.60
2019-05-15T22:23:40.648Z,91.50
2019-05-15T22:26:07.251Z,93.20
2019-05-15T22:28:34.127Z,94.20
2019-05-15T22:31:04.288Z,94.00
2019-05-15T22:33:30.986Z,93.10
2019-05-15T22:35:59.272Z,93.20
2019-05-15T22:38:28.572Z,93.10
2019-05-15T22:40:55.258Z,91.20
2019-05-15T22:43:21.841Z,90.20
2019-05-15T22:45:49.924Z,89.80
2019-05-15T22:48:18.276Z,88.00
2019-05-15T22:50:45.148Z,89.40
2019-05-15T22:53:13.891Z,85.10
2019-05-15T22:55:40.767Z,86.50
2019-05-15T22:58:08.727Z,86.40
2019-05-15T23:00:39.276Z,84.10
2019-05-15T23:03:08.222Z,85.10
2019-05-15T23:05:34.876Z,83.00
2019-05-15T23:08:03.046Z,83.00
2019-05-15T23:10:29.895Z,86.10
2019-05-15T23:12:58.092Z,83.80
2019-05-15T23:15:28.146Z,83.40
2019-05-15T23:17:54.908Z,80.50
2019-05-15T23:20:21.662Z,83.90
2019-05-15T23:22:51.074Z,83.30
2019-05-15T23:25:18.234Z,81.80
2019-05-15T23:27:45.095Z,83.40
2019-05-15T23:30:13.732Z,83.60
2019-05-15T23:32:40.588Z,80.70
2019-05-15T23:35:07.418Z,80.80
2019-05-15T23:37:35.825Z,80.40
2019-05-15T23:40:02.419Z,79.60
2019-05-15T23:42:29.463Z,81.60
2019-05-15T23:45:01.649Z,80.40
2019-05-15T23:47:28.662Z,82.10
2019-05-15T23:49:57.762Z,78.40
2019-05-15T23:52:27.576Z,78.90
2019-05-15T23:54:54.450Z,79.00
2019-05-15T23:57:21.033Z,79.70
2019-05-15T23:59:49.639Z,79.30
